createdAt,value
2019-02-16T05:00:17.250Z,0.40
2019-02-16T05:02:39.779Z,0.40
2019-02-16T05:05:03.504Z,0.40
2019-02-16T05:07:25.922Z,0.40
2019-02-16T05:09:48.339Z,0.30
2019-02-16T05:12:10.770Z,0.30
2019-02-16T05:14:33.195Z,0.30
2019-02-16T06:02:22.415Z,-0.20
2019-02-16T06:04:57.785Z,-0.20
2019-02-16T06:07:32.899Z,-0.20
2019-02-16T06:10:08.099Z,-0.30
2019-02-16T06:12:44.387Z,-0.30
2019-02-16T07:00:20.576Z,-0.20
2019-02-16T07:02:42.999Z,-0.10
2019-02-16T07:05:05.666Z,0.00
2019-02-16T07:07:28.071Z,0.00
2019-02-16T07:10:03.547Z,0.10
2019-02-16T07:12:38.667Z,0.20
2019-02-16T08:03:00.671Z,29.40
2019-02-16T08:05:42.607Z,30.80
2019-02-16T08:08:43.975Z,32.60
2019-02-16T08:11:38.210Z,34.20
2019-02-16T08:14:16.572Z,35.20
2019-02-16T09:01:40.578Z,41.70
2019-02-16T09:04:23.614Z,43.40
2019-02-16T09:07:04.681Z,44.90
2019-02-16T09:09:45.393Z,45.50
2019-02-16T09:12:33.394Z,46.20
2019-02-16T10:02:42.167Z,42.90
2019-02-16T10:05:33.080Z,44.20
2019-02-16T10:08:12.758Z,45.40
2019-02-16T10:10:53.493Z,45.90
2019-02-16T10:13:38.427Z,46.30
2019-02-16T11:01:43.007Z,28.30
2019-02-16T11:04:23.715Z,27.90
2019-02-16T11:07:00.530Z,27.40
2019-02-16T11:09:38.818Z,26.90
2019-02-16T11:12:39.306Z,26.60
2019-02-16T15:02:39.075Z,20.40
2019-02-16T15:05:14.304Z,20.00
2019-02-16T15:07:50.368Z,19.80
2019-02-16T15:10:26.785Z,19.60
2019-02-16T15:13:02.432Z,19.50
2019-02-16T16:02:47.395Z,15.30
2019-02-16T16:05:22.223Z,15.00
2019-02-16T16:08:16.696Z,14.90
2019-02-16T16:11:03.634Z,14.70
2019-02-16T16:13:47.303Z,14.50
2019-02-16T17:02:24.182Z,12.10
2019-02-16T17:05:09.870Z,11.80
2019-02-16T17:08:07.316Z,11.70
2019-02-16T17:11:04.443Z,11.50
2019-02-16T17:13:58.392Z,11.30
2019-02-16T18:00:35.851Z,8.80
2019-02-16T18:03:25.634Z,8.60
2019-02-16T18:06:26.284Z,8.50
2019-02-16T18:09:20.405Z,8.40
2019-02-16T18:12:15.370Z,8.20
2019-02-16T19:05:28.962Z,7.00
2019-02-16T19:08:28.015Z,6.80
2019-02-16T19:11:22.444Z,6.80
2019-02-16T19:14:16.779Z,6.80
2019-02-16T20:00:43.309Z,6.10
2019-02-16T20:03:44.721Z,6.00
2019-02-16T20:06:26.711Z,6.00
2019-02-16T20:09:21.473Z,5.90
2019-02-16T20:12:06.135Z,6.00
2019-02-16T20:14:56.690Z,5.90
2019-02-16T21:01:45.278Z,5.50
2019-02-16T21:04:27.211Z,5.40
2019-02-16T21:07:28.752Z,5.30
2019-02-16T21:10:23.634Z,5.30
2019-02-16T21:13:07.243Z,5.20
